createdAt,value
2023-03-27T00:01:33.100Z,99886.22
2023-03-27T00:04:03.788Z,99902.47
2023-03-27T00:06:34.911Z,99900.09
2023-03-27T00:09:06.476Z,99908.03
2023-03-27T00:11:35.062Z,99914.00
2023-03-27T00:14:08.424Z,99922.59
2023-03-27T00:16:44.764Z,99923.47
2023-03-27T00:19:15.149Z,99929.66
2023-03-27T00:21:48.979Z,99940.84
2023-03-27T00:24:17.534Z,99938.13
2023-03-27T00:26:45.379Z,99944.91
2023-03-27T00:29:13.637Z,99959.28
2023-03-27T00:31:43.582Z,99962.50
2023-03-27T00:34:13.687Z,99969.44
2023-03-27T00:36:43.968Z,99987.66
2023-03-27T00:39:11.892Z,99992.50
2023-03-27T00:41:45.687Z,100002.06
2023-03-27T00:44:34.744Z,100003.66
2023-03-27T00:47:05.776Z,100014.31
2023-03-27T00:49:36.849Z,100013.69
2023-03-27T00:52:09.058Z,100013.75
2023-03-27T00:54:39.476Z,100023.03
2023-03-27T00:57:13.209Z,100021.00
2023-03-27T00:59:50.317Z,100020.28
2023-03-27T01:02:21.081Z,100023.50
2023-03-27T01:04:51.013Z,100022.22
2023-03-27T01:07:23.026Z,100027.78
2023-03-27T01:09:53.964Z,100033.53
2023-03-27T01:12:56.974Z,100030.22
2023-03-27T01:15:24.809Z,100036.75
2023-03-27T01:18:43.084Z,100046.34
2023-03-27T01:21:16.783Z,100052.19
2023-03-27T01:24:15.251Z,100062.09
2023-03-27T01:26:58.404Z,100068.00
2023-03-27T01:30:05.909Z,100074.22
2023-03-27T01:32:54.265Z,100080.84
2023-03-27T01:35:52.769Z,100089.25
2023-03-27T01:38:41.494Z,100098.19
2023-03-27T01:41:21.420Z,100096.81
2023-03-27T01:43:54.402Z,100102.63
2023-03-27T01:46:46.316Z,100106.97
2023-03-27T01:49:24.953Z,100113.88
2023-03-27T01:52:05.104Z,100129.16
2023-03-27T01:54:39.960Z,100134.53
2023-03-27T01:57:48.761Z,100144.19
2023-03-27T02:00:22.786Z,100156.88
2023-03-27T02:02:58.313Z,100157.59
2023-03-27T02:05:36.064Z,100167.09
2023-03-27T02:08:36.149Z,100174.75
2023-03-27T02:11:23.799Z,100165.59
2023-03-27T02:13:57.746Z,100180.75
2023-03-27T02:16:34.865Z,100179.84
2023-03-27T02:19:08.537Z,100177.38
2023-03-27T02:21:36.220Z,100188.22
2023-03-27T02:24:09.579Z,100202.44
2023-03-27T02:26:39.203Z,100209.81
2023-03-27T02:29:15.618Z,100216.03
2023-03-27T02:31:57.865Z,100228.63
2023-03-27T02:34:38.489Z,100233.16
2023-03-27T02:37:21.635Z,100248.41
2023-03-27T02:40:40.245Z,100254.88
2023-03-27T02:43:59.662Z,100267.63
2023-03-27T02:46:52.375Z,100269.78
2023-03-27T02:49:31.734Z,100274.47
2023-03-27T02:52:12.870Z,100274.19
2023-03-27T02:54:47.131Z,100279.25
2023-03-27T02:57:24.942Z,100293.19
2023-03-27T03:00:26.396Z,100302.38
2023-03-27T03:03:28.277Z,100312.56
2023-03-27T03:06:11.644Z,100311.16
2023-03-27T03:08:47.231Z,100320.72
2023-03-27T03:11:15.966Z,100321.59
2023-03-27T03:13:44.437Z,100339.38
2023-03-27T03:16:13.532Z,100337.53
2023-03-27T03:18:42.076Z,100348.66
2023-03-27T03:21:11.232Z,100354.81
2023-03-27T03:23:39.800Z,100360.50
2023-03-27T03:26:07.867Z,100368.47
2023-03-27T03:29:00.661Z,100370.28
2023-03-27T03:31:44.794Z,100380.06
2023-03-27T03:34:19.013Z,100382.31
2023-03-27T03:36:49.747Z,100386.81
2023-03-27T03:39:23.288Z,100398.28
2023-03-27T03:41:51.308Z,100403.31
2023-03-27T03:44:19.784Z,100414.53
2023-03-27T03:46:47.885Z,100427.91
2023-03-27T03:49:23.226Z,100436.91
2023-03-27T03:52:03.370Z,100441.16
2023-03-27T03:54:33.232Z,100444.03
2023-03-27T03:57:01.431Z,100452.16
2023-03-27T03:59:30.395Z,100459.94
2023-03-27T04:02:28.785Z,100473.34
2023-03-27T04:05:21.416Z,100470.50
2023-03-27T04:07:56.414Z,100479.06
2023-03-27T04:10:41.611Z,100500.25
2023-03-27T04:13:18.923Z,100500.31
2023-03-27T04:16:05.015Z,100505.22
2023-03-27T04:18:41.379Z,100515.84
2023-03-27T04:21:16.416Z,100522.72
2023-03-27T04:23:51.566Z,100518.47
2023-03-27T04:26:30.344Z,100529.47
2023-03-27T04:29:26.307Z,100524.91
2023-03-27T04:32:01.144Z,100525.34
2023-03-27T04:34:46.814Z,100537.41
2023-03-27T04:37:36.758Z,100540.69
2023-03-27T04:40:15.382Z,100544.38
2023-03-27T04:42:47.190Z,100553.94
2023-03-27T04:45:20.793Z,100557.00
2023-03-27T04:47:55.053Z,100567.00
2023-03-27T04:50:27.006Z,100572.75
2023-03-27T04:52:58.858Z,100572.75
2023-03-27T04:55:31.058Z,100579.47
2023-03-27T04:58:02.640Z,100589.47
2023-03-27T05:00:30.618Z,100608.00
2023-03-27T05:03:13.048Z,100608.22
2023-03-27T05:05:53.250Z,100602.69
2023-03-27T05:08:20.112Z,100610.44
2023-03-27T05:10:47.178Z,100613.50
2023-03-27T05:13:17.457Z,100626.38
2023-03-27T05:15:44.936Z,100625.53
2023-03-27T05:18:16.188Z,100631.03
2023-03-27T05:20:49.831Z,100630.81
2023-03-27T05:23:17.748Z,100637.75
2023-03-27T05:26:00.138Z,100647.53
2023-03-27T05:28:40.048Z,100659.75
2023-03-27T05:31:11.066Z,100667.50
2023-03-27T05:33:50.443Z,100674.84
2023-03-27T05:36:19.180Z,100685.44
2023-03-27T05:38:49.618Z,100691.53
2023-03-27T05:41:33.057Z,100699.06
2023-03-27T05:44:02.592Z,100695.22
2023-03-27T05:46:43.394Z,100707.06
2023-03-27T05:49:17.223Z,100723.75
2023-03-27T05:51:48.361Z,100718.66
2023-03-27T05:54:20.323Z,100725.97
2023-03-27T05:56:53.025Z,100726.22
2023-03-27T05:59:20.360Z,100732.13
2023-03-27T06:01:49.657Z,100736.81
2023-03-27T06:04:26.238Z,100740.06
2023-03-27T06:07:06.300Z,100745.75
2023-03-27T06:09:37.722Z,100758.00
2023-03-27T06:12:25.267Z,100760.84
2023-03-27T06:14:59.857Z,100769.84
2023-03-27T06:17:40.586Z,100781.88
2023-03-27T06:20:28.640Z,100790.25
2023-03-27T06:22:59.752Z,100803.09
2023-03-27T06:25:33.540Z,100813.91
2023-03-27T06:28:02.380Z,100809.00
2023-03-27T06:30:31.794Z,100813.50
2023-03-27T06:33:22.383Z,100828.94
2023-03-27T06:35:53.972Z,100815.81
2023-03-27T06:38:33.223Z,100826.94
2023-03-27T06:41:01.593Z,100827.03
2023-03-27T06:44:00.932Z,100839.69
2023-03-27T06:46:48.156Z,100843.34
2023-03-27T06:49:51.057Z,100842.69
2023-03-27T06:52:29.498Z,100844.19
2023-03-27T06:55:08.895Z,100857.03
2023-03-27T06:57:52.451Z,100858.13
2023-03-27T07:00:25.975Z,100856.72
2023-03-27T07:03:12.018Z,100854.50
2023-03-27T07:05:57.531Z,100879.38
2023-03-27T07:08:29.794Z,100884.69
2023-03-27T07:13:40.232Z,100908.34
2023-03-27T07:16:15.244Z,100905.22
2023-03-27T07:18:42.615Z,100908.56
2023-03-27T07:21:10.394Z,100916.91
2023-03-27T07:23:37.644Z,100925.09
2023-03-27T07:26:08.062Z,100933.06
2023-03-27T07:29:11.347Z,100944.91
2023-03-27T07:31:55.328Z,100945.31
2023-03-27T07:34:35.217Z,100954.28
2023-03-27T07:37:22.793Z,100957.16
2023-03-27T07:40:13.852Z,100962.66
2023-03-27T07:42:45.886Z,100961.19
2023-03-27T07:45:20.513Z,100977.13
2023-03-27T07:47:49.871Z,100974.06
2023-03-27T07:50:20.842Z,100981.63
2023-03-27T07:52:50.030Z,100977.09
2023-03-27T07:55:19.148Z,100972.97
2023-03-27T07:58:01.808Z,100971.75
2023-03-27T08:00:34.158Z,100988.47
2023-03-27T08:03:16.756Z,100983.16
2023-03-27T08:05:56.645Z,100988.06
2023-03-27T08:08:26.754Z,100989.22
2023-03-27T08:11:00.313Z,100995.69
2023-03-27T08:13:31.568Z,101005.09
2023-03-27T08:16:07.958Z,101009.78
2023-03-27T08:18:37.294Z,101001.75
2023-03-27T08:21:08.636Z,101013.56
2023-03-27T08:23:38.136Z,101008.06
2023-03-27T08:26:17.289Z,101012.34
2023-03-27T08:28:54.360Z,101026.88
2023-03-27T08:31:25.762Z,101017.97
2023-03-27T08:33:57.684Z,101027.00
2023-03-27T08:36:28.131Z,101025.19
2023-03-27T08:38:55.843Z,101027.25
2023-03-27T08:41:40.942Z,101025.28
2023-03-27T08:44:16.231Z,101034.34
2023-03-27T08:46:55.473Z,101037.16
2023-03-27T08:49:26.739Z,101045.72
2023-03-27T08:52:24.276Z,101057.63
2023-03-27T08:54:59.442Z,101052.31
2023-03-27T08:57:37.719Z,101050.75
2023-03-27T09:00:27.228Z,101055.03
2023-03-27T09:03:29.088Z,101050.88
2023-03-27T09:06:03.879Z,101052.88
2023-03-27T09:08:34.895Z,101052.44
2023-03-27T09:11:21.238Z,101055.84
2023-03-27T09:13:55.783Z,101057.22
2023-03-27T09:16:28.292Z,101055.47
2023-03-27T09:19:36.512Z,101057.13
2023-03-27T09:22:41.215Z,101056.81
2023-03-27T09:25:38.098Z,101047.88
2023-03-27T09:28:30.712Z,101040.66
2023-03-27T09:31:19.024Z,101046.91
2023-03-27T09:33:46.993Z,101053.28
2023-03-27T09:36:13.781Z,101054.66
2023-03-27T09:38:50.631Z,101062.25
2023-03-27T09:41:27.118Z,101060.69
2023-03-27T09:44:09.392Z,101053.00
2023-03-27T09:46:46.675Z,101043.50
2023-03-27T09:49:18.634Z,101041.94
2023-03-27T09:51:53.943Z,101032.44
2023-03-27T09:54:54.745Z,101042.31
2023-03-27T09:57:40.624Z,101063.34
2023-03-27T10:00:30.914Z,101074.50
2023-03-27T10:03:08.577Z,101087.91
2023-03-27T10:05:39.617Z,101086.25
2023-03-27T10:08:32.536Z,101091.09
2023-03-27T10:11:16.879Z,101076.47
2023-03-27T10:13:54.798Z,101055.91
2023-03-27T10:16:25.825Z,101061.09
2023-03-27T10:19:18.395Z,101050.88
2023-03-27T10:21:45.926Z,101042.75
2023-03-27T10:24:33.526Z,101043.94
2023-03-27T10:27:35.307Z,101047.91
2023-03-27T10:30:33.722Z,101052.22
2023-03-27T10:33:15.860Z,101060.19
2023-03-27T10:35:55.119Z,101065.19
2023-03-27T10:38:32.958Z,101060.75
2023-03-27T10:41:28.711Z,101056.94
2023-03-27T10:43:59.101Z,101048.84
2023-03-27T10:46:29.004Z,101046.13
2023-03-27T10:49:25.670Z,101048.94
2023-03-27T10:51:57.479Z,101053.09
2023-03-27T10:54:42.905Z,101062.81
2023-03-27T10:57:22.887Z,101067.47
2023-03-27T11:00:01.435Z,101073.72
2023-03-27T11:02:57.786Z,101085.81
2023-03-27T11:05:40.193Z,101078.38
2023-03-27T11:08:25.869Z,101087.94
2023-03-27T11:11:07.676Z,101085.34
2023-03-27T11:13:43.484Z,101098.56
2023-03-27T11:16:27.486Z,101106.91
2023-03-27T11:19:26.502Z,101118.25
2023-03-27T11:22:16.909Z,101123.78
2023-03-27T11:24:55.579Z,101109.19
2023-03-27T11:27:58.379Z,101106.75
2023-03-27T11:30:56.205Z,101112.31
2023-03-27T11:33:34.525Z,101104.53
2023-03-27T11:36:20.978Z,101102.53
2023-03-27T11:39:09.456Z,101110.59
2023-03-27T11:41:36.552Z,101111.75
2023-03-27T11:44:04.181Z,101107.44
2023-03-27T11:46:49.547Z,101117.03
2023-03-27T11:49:37.928Z,101114.22
2023-03-27T11:52:40.523Z,101115.78
2023-03-27T11:55:31.354Z,101102.56
2023-03-27T11:58:29.010Z,101103.91
2023-03-27T12:01:16.582Z,101105.31
2023-03-27T12:04:09.978Z,101109.03
2023-03-27T12:07:47.944Z,101096.72
2023-03-27T12:10:29.401Z,101093.50
2023-03-27T12:13:47.774Z,101102.66
2023-03-27T12:16:35.762Z,101104.56
2023-03-27T12:19:29.968Z,101098.69
2023-03-27T12:22:24.563Z,101100.28
2023-03-27T12:25:37.759Z,101091.31
2023-03-27T12:29:23.631Z,101094.38
2023-03-27T12:32:22.285Z,101103.09
2023-03-27T12:34:58.973Z,101112.22
2023-03-27T12:37:47.885Z,101119.34
2023-03-27T12:40:37.893Z,101133.88
2023-03-27T12:43:23.394Z,101141.97
2023-03-27T12:46:24.374Z,101173.19
2023-03-27T12:49:05.860Z,101174.09
2023-03-27T12:51:48.340Z,101152.13
2023-03-27T12:54:28.693Z,101156.69
2023-03-27T12:57:21.253Z,101159.75
2023-03-27T12:59:53.619Z,101153.94
2023-03-27T13:02:40.995Z,101147.94
2023-03-27T13:05:24.108Z,101148.34
2023-03-27T13:08:19.022Z,101148.72
2023-03-27T13:11:27.207Z,101149.13
2023-03-27T13:14:32.974Z,101150.13
2023-03-27T13:17:37.228Z,101144.25
2023-03-27T13:20:35.159Z,101154.94
2023-03-27T13:23:43.559Z,101143.03
2023-03-27T13:26:46.232Z,101149.44
2023-03-27T13:29:23.344Z,101145.19
2023-03-27T13:32:31.083Z,101138.66
2023-03-27T13:35:41.378Z,101133.59
2023-03-27T13:38:12.373Z,101139.75
2023-03-27T13:41:36.147Z,101164.56
2023-03-27T13:44:12.489Z,101175.44
2023-03-27T13:46:48.075Z,101198.34
2023-03-27T13:49:18.293Z,101204.09
2023-03-27T13:52:44.868Z,101197.13
2023-03-27T13:55:46.556Z,101198.28
2023-03-27T13:59:22.321Z,101204.66
2023-03-27T14:02:22.572Z,101192.34
2023-03-27T14:05:18.764Z,101194.44
2023-03-27T14:08:02.195Z,101201.47
2023-03-27T14:11:08.215Z,101180.34
2023-03-27T14:14:03.394Z,101189.31
2023-03-27T14:16:39.505Z,101191.59
2023-03-27T14:19:38.233Z,101190.56
2023-03-27T14:22:20.345Z,101188.53
2023-03-27T14:25:00.977Z,101188.66
2023-03-27T14:27:35.348Z,101190.81
2023-03-27T14:30:07.597Z,101182.94
2023-03-27T14:32:36.652Z,101187.63
2023-03-27T14:35:07.353Z,101178.69
2023-03-27T14:37:41.987Z,101174.19
2023-03-27T14:40:37.984Z,101157.28
2023-03-27T14:43:07.402Z,101158.56
2023-03-27T14:45:40.278Z,101168.47
2023-03-27T14:48:23.834Z,101171.72
2023-03-27T14:50:58.200Z,101169.78
2023-03-27T14:53:31.547Z,101158.56
2023-03-27T14:56:28.755Z,101164.78
2023-03-27T14:59:13.220Z,101163.44
2023-03-27T15:01:52.254Z,101164.81
2023-03-27T15:04:19.603Z,101164.59
2023-03-27T15:06:50.184Z,101162.22
2023-03-27T15:09:44.230Z,101163.22
2023-03-27T15:12:28.333Z,101149.66
2023-03-27T15:14:59.485Z,101156.13
2023-03-27T15:17:28.587Z,101154.22
2023-03-27T15:20:14.659Z,101160.25
2023-03-27T15:22:47.435Z,101158.72
2023-03-27T15:25:20.467Z,101157.09
2023-03-27T15:27:53.171Z,101153.22
2023-03-27T15:30:27.324Z,101152.22
2023-03-27T15:33:02.161Z,101158.88
2023-03-27T15:35:35.946Z,101158.06
2023-03-27T15:38:06.994Z,101151.31
2023-03-27T15:40:38.160Z,101152.13
2023-03-27T15:43:27.533Z,101147.53
2023-03-27T15:45:58.812Z,101157.81
2023-03-27T15:48:37.104Z,101167.34
2023-03-27T15:51:06.428Z,101164.50
2023-03-27T15:53:40.873Z,101169.44
2023-03-27T15:56:15.990Z,101167.66
2023-03-27T15:58:59.530Z,101167.31
2023-03-27T16:01:33.823Z,101169.81
2023-03-27T16:04:06.713Z,101187.63
2023-03-27T16:06:37.695Z,101185.97
2023-03-27T16:09:10.159Z,101187.66
2023-03-27T16:11:40.093Z,101196.53
2023-03-27T16:14:32.544Z,101189.91
2023-03-27T16:17:11.774Z,101190.78
2023-03-27T16:19:58.527Z,101195.56
2023-03-27T16:22:34.489Z,101191.50
2023-03-27T16:25:05.910Z,101194.31
2023-03-27T16:27:38.585Z,101198.66
2023-03-27T16:30:39.564Z,101197.59
2023-03-27T16:33:16.819Z,101214.28
2023-03-27T16:35:44.317Z,101228.25
2023-03-27T16:38:12.388Z,101231.63
2023-03-27T16:40:41.549Z,101239.78
2023-03-27T16:43:08.661Z,101241.19
2023-03-27T16:45:37.529Z,101250.97
2023-03-27T16:48:05.367Z,101254.56
2023-03-27T16:50:32.488Z,101256.19
2023-03-27T16:52:59.445Z,101265.63
2023-03-27T16:55:26.360Z,101267.94
2023-03-27T16:57:54.269Z,101272.81
2023-03-27T17:00:21.859Z,101276.06
2023-03-27T17:02:48.735Z,101280.25
2023-03-27T17:05:16.236Z,101289.78
2023-03-27T17:07:44.699Z,101287.53
2023-03-27T17:10:11.507Z,101294.13
2023-03-27T17:12:41.198Z,101297.13
2023-03-27T17:15:08.521Z,101300.66
2023-03-27T17:17:35.715Z,101307.91
2023-03-27T17:20:03.902Z,101309.53
2023-03-27T17:22:31.957Z,101320.72
2023-03-27T17:25:01.226Z,101323.69
2023-03-27T17:27:28.352Z,101328.91
2023-03-27T17:29:57.900Z,101331.25
2023-03-27T17:32:27.988Z,101331.69
2023-03-27T17:34:55.345Z,101340.47
2023-03-27T17:37:23.973Z,101341.34
2023-03-27T17:39:51.181Z,101348.13
2023-03-27T17:42:18.177Z,101371.38
2023-03-27T17:44:45.328Z,101371.47
2023-03-27T17:47:12.609Z,101383.94
2023-03-27T17:49:39.818Z,101398.91
2023-03-27T17:52:11.187Z,101404.66
2023-03-27T17:54:38.492Z,101410.84
2023-03-27T17:57:05.957Z,101408.22
2023-03-27T17:59:32.824Z,101419.09
2023-03-27T18:02:00.393Z,101419.09
2023-03-27T18:04:27.759Z,101427.13
2023-03-27T18:06:54.619Z,101423.44
2023-03-27T18:09:21.593Z,101426.69
2023-03-27T18:11:52.044Z,101420.72
2023-03-27T18:14:18.859Z,101428.91
2023-03-27T18:16:46.287Z,101438.06
2023-03-27T18:19:13.531Z,101433.19
2023-03-27T18:21:40.284Z,101432.38
2023-03-27T18:24:07.450Z,101427.41
2023-03-27T18:26:34.327Z,101436.22
2023-03-27T18:29:01.204Z,101434.81
2023-03-27T18:31:28.093Z,101436.44
2023-03-27T18:33:55.075Z,101436.47
2023-03-27T18:36:22.122Z,101445.13
2023-03-27T18:38:50.071Z,101450.03
2023-03-27T18:41:16.914Z,101454.53
2023-03-27T18:43:43.584Z,101463.16
2023-03-27T18:46:16.449Z,101466.06
2023-03-27T18:48:44.268Z,101464.81
2023-03-27T18:51:12.069Z,101461.56
2023-03-27T18:53:38.901Z,101470.56
2023-03-27T18:56:06.224Z,101471.38
2023-03-27T18:58:32.980Z,101480.41
2023-03-27T19:01:00.005Z,101476.28
2023-03-27T19:03:30.318Z,101471.41
2023-03-27T19:06:01.225Z,101477.97
2023-03-27T19:08:27.960Z,101486.53
2023-03-27T19:10:55.954Z,101477.94
2023-03-27T19:13:42.960Z,101488.78
2023-03-27T19:16:30.720Z,101490.81
2023-03-27T19:19:36.277Z,101485.09
2023-03-27T19:22:26.219Z,101495.75
2023-03-27T19:24:59.547Z,101492.66
2023-03-27T19:27:28.224Z,101489.19
2023-03-27T19:30:07.435Z,101498.75
2023-03-27T19:32:34.249Z,101500.38
2023-03-27T19:35:01.931Z,101509.00
2023-03-27T19:37:29.706Z,101506.56
2023-03-27T19:39:57.002Z,101515.56
2023-03-27T19:42:23.857Z,101504.47
2023-03-27T19:44:50.566Z,101505.31
2023-03-27T19:47:17.623Z,101506.75
2023-03-27T19:49:44.417Z,101511.03
2023-03-27T19:52:18.646Z,101507.81
2023-03-27T19:54:46.012Z,101513.75
2023-03-27T19:57:12.720Z,101518.03
2023-03-27T19:59:39.555Z,101515.78
2023-03-27T20:02:06.772Z,101515.38
2023-03-27T20:04:33.430Z,101519.47
2023-03-27T20:07:02.135Z,101522.16
2023-03-27T20:09:29.058Z,101519.47
2023-03-27T20:11:57.045Z,101522.19
2023-03-27T20:14:23.900Z,101526.28
2023-03-27T20:16:51.096Z,101518.53
2023-03-27T20:19:18.361Z,101519.72
2023-03-27T20:21:46.735Z,101524.25
2023-03-27T20:24:17.301Z,101530.41
2023-03-27T20:26:52.376Z,101527.31
2023-03-27T20:29:24.445Z,101530.00
2023-03-27T20:31:51.350Z,101532.03
2023-03-27T20:34:20.019Z,101533.47
2023-03-27T20:36:47.428Z,101530.59
2023-03-27T20:39:22.733Z,101535.13
2023-03-27T20:41:51.316Z,101530.38
2023-03-27T20:44:20.588Z,101538.53
2023-03-27T20:46:51.102Z,101541.38
2023-03-27T20:49:40.052Z,101543.41
2023-03-27T20:52:08.595Z,101548.13
2023-03-27T20:54:35.922Z,101549.09
2023-03-27T20:57:03.268Z,101549.50
2023-03-27T20:59:31.432Z,101554.16
2023-03-27T21:01:59.352Z,101550.63
2023-03-27T21:04:28.377Z,101548.13
2023-03-27T21:06:55.863Z,101554.03
2023-03-27T21:09:23.680Z,101555.91
2023-03-27T21:11:53.522Z,101558.75
2023-03-27T21:14:22.783Z,101555.09
2023-03-27T21:16:49.849Z,101548.59
2023-03-27T21:19:17.200Z,101554.34
2023-03-27T21:21:45.486Z,101551.88
2023-03-27T21:24:13.285Z,101553.22
2023-03-27T21:26:40.559Z,101551.09
2023-03-27T21:29:10.718Z,101554.94
2023-03-27T21:31:39.158Z,101554.94
2023-03-27T21:34:06.363Z,101559.44
2023-03-27T21:36:33.479Z,101561.03
2023-03-27T21:39:01.060Z,101562.34
2023-03-27T21:41:27.854Z,101566.81
2023-03-27T21:43:54.554Z,101566.19
2023-03-27T21:46:22.027Z,101566.19
2023-03-27T21:48:52.416Z,101567.41
2023-03-27T21:51:19.724Z,101573.13
2023-03-27T21:53:46.520Z,101566.63
2023-03-27T21:56:13.498Z,101577.03
2023-03-27T21:58:40.295Z,101577.25
2023-03-27T22:01:07.444Z,101572.13
2023-03-27T22:03:34.270Z,101578.03
2023-03-27T22:06:11.637Z,101576.88
2023-03-27T22:08:40.424Z,101580.41
2023-03-27T22:11:10.417Z,101585.53
2023-03-27T22:13:37.978Z,101586.63
2023-03-27T22:16:13.765Z,101585.38
2023-03-27T22:18:41.347Z,101593.47
2023-03-27T22:21:19.344Z,101599.19
2023-03-27T22:23:46.506Z,101593.75
2023-03-27T22:26:13.280Z,101589.81
2023-03-27T22:28:40.041Z,101592.34
2023-03-27T22:31:07.603Z,101591.84
2023-03-27T22:33:35.481Z,101605.63
2023-03-27T22:36:03.090Z,101602.53
2023-03-27T22:38:31.835Z,101605.75
2023-03-27T22:40:59.698Z,101618.41
2023-03-27T22:43:29.075Z,101619.28
2023-03-27T22:45:56.004Z,101613.72
2023-03-27T22:48:22.785Z,101631.56
2023-03-27T22:50:56.846Z,101629.53
2023-03-27T22:53:25.404Z,101634.53
2023-03-27T22:55:54.270Z,101643.59
2023-03-27T22:58:22.352Z,101642.56
2023-03-27T23:00:51.139Z,101651.78
2023-03-27T23:03:19.496Z,101651.66
2023-03-27T23:05:54.326Z,101651.22
2023-03-27T23:08:24.302Z,101656.97
2023-03-27T23:10:59.273Z,101663.97
2023-03-27T23:13:28.727Z,101672.28
2023-03-27T23:15:56.148Z,101674.94
2023-03-27T23:18:27.312Z,101667.25
2023-03-27T23:20:58.879Z,101669.13
2023-03-27T23:23:27.877Z,101673.44
2023-03-27T23:25:56.272Z,101686.09
2023-03-27T23:28:23.905Z,101674.53
2023-03-27T23:30:59.747Z,101687.38
2023-03-27T23:33:28.423Z,101681.78
2023-03-27T23:36:02.952Z,101682.16
2023-03-27T23:38:30.419Z,101687.03
2023-03-27T23:41:00.130Z,101689.69
2023-03-27T23:43:29.911Z,101688.88
2023-03-27T23:45:59.507Z,101694.19
2023-03-27T23:48:27.528Z,101688.81
2023-03-27T23:50:56.190Z,101701.19
2023-03-27T23:53:27.926Z,101704.28
2023-03-27T23:55:56.536Z,101702.03
2023-03-27T23:58:28.810Z,101708.97
